CheckWX is a tool to help pilots better visualize weather data.  It is not intended as a substitute for an official pre-flight weather briefing.

19:57:11 UTC

FYWE METAR
Eros Airport
Windhoek, Namibia
Current

2 hours ago

FYWE 251800Z 17004KT CAVOK 14/M05 Q1024
Observed
Jun-25 @ 18:00 UTC
Wind
  • 170° at 4 KTS
Visibility
10,000+ meters
Flight Rules
VFR
Cloud Levels
  • Clear skies
Temperature
14°C / 57°F
Dewpoint
-5°C / 23°F
Humidity
27%
Altimeter
30.24" Hg
Pressure
1023.92 hPa
Previous

3 hours ago

FYWE 251700Z 00000KT CAVOK 18/M07 Q1024
Observed
Jun-25 @ 17:00 UTC
Visibility
10,000+ meters
Flight Rules
VFR
Cloud Levels
  • Clear skies
Temperature
18°C / 64°F
Dewpoint
-7°C / 19°F
Humidity
18%
Altimeter
30.24" Hg
Pressure
1023.92 hPa
Previous

4 hours ago

FYWE 251600Z 34005KT CAVOK 21/M07 Q1023
Observed
Jun-25 @ 16:00 UTC
Wind
  • 340° at 5 KTS
Visibility
10,000+ meters
Flight Rules
VFR
Cloud Levels
  • Clear skies
Temperature
21°C / 70°F
Dewpoint
-7°C / 19°F
Humidity
15%
Altimeter
30.21" Hg
Pressure
1022.92 hPa